createdAt,value
2018-11-28T00:00:29.622Z,37.53
2018-11-28T00:05:33.143Z,39.63
2018-11-28T00:10:38.654Z,41.00
2018-11-28T00:15:42.193Z,40.77
2018-11-28T00:20:45.713Z,38.67
2018-11-28T00:25:49.271Z,39.43
2018-11-28T00:30:52.745Z,39.00
2018-11-28T00:35:56.748Z,40.70
2018-11-28T00:41:00.264Z,39.77
2018-11-28T00:46:03.774Z,41.53
2018-11-28T00:51:07.543Z,42.97
2018-11-28T00:56:11.065Z,41.93
2018-11-28T01:01:15.678Z,44.93
2018-11-28T01:06:19.292Z,44.00
2018-11-28T01:11:22.936Z,38.97
2018-11-28T01:16:27.860Z,41.87
2018-11-28T01:21:31.596Z,36.47
2018-11-28T01:26:35.385Z,37.13
2018-11-28T01:31:38.869Z,42.67
2018-11-28T01:41:51.892Z,40.07
2018-11-28T01:46:56.481Z,40.30
2018-11-28T01:52:00.058Z,38.43
2018-11-28T01:57:03.621Z,43.17
2018-11-28T02:02:09.794Z,40.37
2018-11-28T02:07:15.401Z,37.70
2018-11-28T02:12:18.879Z,40.70
2018-11-28T02:17:22.369Z,39.37
2018-11-28T02:22:31.649Z,40.07
2018-11-28T02:27:35.207Z,42.30
2018-11-28T02:32:38.701Z,46.00
2018-11-28T02:37:42.339Z,40.47
2018-11-28T02:42:46.511Z,36.70
2018-11-28T02:47:50.497Z,41.83
2018-11-28T02:52:58.371Z,35.10
2018-11-28T02:58:01.882Z,45.80
2018-11-28T03:03:05.485Z,38.10
2018-11-28T03:08:08.998Z,38.77
2018-11-28T03:13:12.493Z,41.83
2018-11-28T03:18:15.984Z,41.10
2018-11-28T03:23:19.836Z,41.07
2018-11-28T03:28:23.440Z,42.80
2018-11-28T03:33:26.985Z,44.77
2018-11-28T03:38:30.486Z,43.57
2018-11-28T03:43:34.029Z,41.23
2018-11-28T03:48:37.513Z,38.57
2018-11-28T03:53:41.057Z,43.20
2018-11-28T03:58:44.559Z,42.90
2018-11-28T04:03:53.517Z,49.10
2018-11-28T04:08:57.131Z,40.13
2018-11-28T04:14:00.624Z,46.13
2018-11-28T04:19:05.538Z,45.47
2018-11-28T04:24:10.145Z,47.50
2018-11-28T04:29:13.757Z,47.83
2018-11-28T04:34:17.258Z,43.83
2018-11-28T04:39:20.778Z,45.63
2018-11-28T04:44:24.337Z,51.23
2018-11-28T04:49:27.862Z,46.17
2018-11-28T04:54:32.431Z,49.10
2018-11-28T04:59:35.949Z,49.73
2018-11-28T05:04:39.453Z,46.90
2018-11-28T05:09:42.993Z,48.87
2018-11-28T05:14:46.609Z,43.13
2018-11-28T05:19:50.472Z,44.13
2018-11-28T05:24:54.085Z,50.97
2018-11-28T05:29:57.721Z,55.13
2018-11-28T05:35:01.387Z,49.73
2018-11-28T05:40:05.709Z,58.60
2018-11-28T05:45:11.217Z,59.80
2018-11-28T05:50:15.645Z,51.03
2018-11-28T05:55:21.602Z,60.73
2018-11-28T06:00:32.905Z,60.93
2018-11-28T06:05:36.570Z,60.47
2018-11-28T06:10:40.109Z,54.47
2018-11-28T06:15:43.595Z,54.10
2018-11-28T06:20:47.095Z,59.27
2018-11-28T06:25:50.565Z,57.60
2018-11-28T06:30:54.164Z,55.20
2018-11-28T06:35:57.745Z,55.53
2018-11-28T06:41:01.302Z,57.13
2018-11-28T06:46:04.901Z,53.13
2018-11-28T06:51:08.483Z,49.20
2018-11-28T06:56:12.066Z,58.17
2018-11-28T07:01:15.706Z,66.67
2018-11-28T07:06:19.374Z,61.17
2018-11-28T07:11:22.994Z,59.90
2018-11-28T07:16:27.167Z,62.23
2018-11-28T07:21:30.277Z,57.23
2018-11-28T07:26:33.897Z,56.60
2018-11-28T07:31:37.661Z,56.37
2018-11-28T07:36:41.196Z,61.87
2018-11-28T07:41:44.757Z,50.10
2018-11-28T07:46:48.417Z,53.00
2018-11-28T07:51:53.029Z,49.03
2018-11-28T07:56:56.652Z,50.73
2018-11-28T08:02:00.225Z,48.70
2018-11-28T08:07:03.857Z,50.00
2018-11-28T08:12:11.437Z,47.53
2018-11-28T08:17:15.134Z,52.90
2018-11-28T08:22:19.016Z,49.60
2018-11-28T08:27:22.741Z,45.87
2018-11-28T08:32:26.392Z,49.33
2018-11-28T08:37:30.046Z,41.53
2018-11-28T08:42:33.661Z,46.60
2018-11-28T08:47:37.221Z,40.87
2018-11-28T08:52:40.858Z,41.53
2018-11-28T08:57:46.489Z,43.17
2018-11-28T09:02:52.018Z,45.90
2018-11-28T09:07:55.681Z,47.20
2018-11-28T09:13:03.999Z,45.73
2018-11-28T09:18:02.829Z,45.43
2018-11-28T09:23:07.780Z,44.33
2018-11-28T09:28:11.338Z,38.10
2018-11-28T09:33:15.011Z,39.33
2018-11-28T09:38:19.432Z,43.83
2018-11-28T09:43:23.145Z,42.37
2018-11-28T09:48:26.785Z,39.43
2018-11-28T09:53:30.322Z,46.53
2018-11-28T09:58:33.882Z,38.07
2018-11-28T10:03:37.597Z,41.23
2018-11-28T10:08:41.387Z,38.87
2018-11-28T10:13:46.064Z,41.37
2018-11-28T10:18:49.817Z,40.17
2018-11-28T10:23:53.387Z,38.27
2018-11-28T10:28:57.021Z,41.57
2018-11-28T10:34:00.715Z,40.87
2018-11-28T10:39:06.029Z,39.47
2018-11-28T10:44:09.761Z,40.77
2018-11-28T10:49:13.335Z,38.13
2018-11-28T10:54:17.938Z,39.80
2018-11-28T10:59:21.499Z,38.07
2018-11-28T11:04:26.051Z,44.03
2018-11-28T11:09:34.794Z,39.20
2018-11-28T11:14:43.485Z,43.17
2018-11-28T11:19:47.108Z,47.47
2018-11-28T11:24:50.742Z,44.63
2018-11-28T11:29:54.271Z,38.40
2018-11-28T11:34:57.883Z,47.47
2018-11-28T11:40:02.514Z,42.57
2018-11-28T11:45:08.438Z,36.27
2018-11-28T11:50:16.426Z,37.40
2018-11-28T11:55:20.562Z,37.40
2018-11-28T12:00:25.340Z,37.80
2018-11-28T12:05:28.897Z,33.97
2018-11-28T12:10:32.449Z,33.53
2018-11-28T12:15:36.052Z,35.37
2018-11-28T12:20:46.106Z,32.53
2018-11-28T12:25:49.750Z,34.40
2018-11-28T12:30:53.294Z,34.90
2018-11-28T12:35:56.876Z,35.10
2018-11-28T12:41:01.461Z,32.60
2018-11-28T12:46:05.164Z,33.90
2018-11-28T12:51:09.001Z,31.60
2018-11-28T12:56:12.592Z,33.70
2018-11-28T13:01:16.304Z,34.40
2018-11-28T13:06:19.933Z,31.40
2018-11-28T13:11:23.426Z,38.27
2018-11-28T13:16:27.050Z,31.90
2018-11-28T13:21:30.540Z,32.43
2018-11-28T13:26:34.098Z,30.10
2018-11-28T13:31:37.819Z,32.37
2018-11-28T13:36:41.420Z,33.07
2018-11-28T13:41:45.098Z,33.73
2018-11-28T13:46:48.746Z,28.97
2018-11-28T13:51:52.281Z,31.67
2018-11-28T13:56:58.753Z,37.10
2018-11-28T14:01:59.485Z,34.87
2018-11-28T14:07:07.988Z,34.20
2018-11-28T14:12:11.557Z,37.27
2018-11-28T14:17:16.043Z,30.77
2018-11-28T14:22:26.346Z,27.40
2018-11-28T14:27:29.905Z,34.80
2018-11-28T14:32:33.585Z,33.63
2018-11-28T14:37:37.520Z,31.53
2018-11-28T14:42:41.029Z,29.70
2018-11-28T14:47:45.113Z,27.87
2018-11-28T14:52:48.677Z,34.57
2018-11-28T14:57:52.365Z,30.23
2018-11-28T15:02:59.134Z,37.57
2018-11-28T15:08:07.448Z,32.30
2018-11-28T15:13:11.037Z,32.83
2018-11-28T15:18:14.549Z,32.60
2018-11-28T15:23:18.354Z,30.07
2018-11-28T15:28:21.873Z,33.20
2018-11-28T15:33:25.554Z,31.17
2018-11-28T15:38:29.146Z,34.93
2018-11-28T15:43:32.839Z,33.07
2018-11-28T15:48:36.539Z,32.77
2018-11-28T15:53:40.041Z,33.10
2018-11-28T15:58:43.832Z,37.57
2018-11-28T16:03:47.852Z,36.00
2018-11-28T16:08:54.323Z,40.17
2018-11-28T16:13:57.929Z,34.83
2018-11-28T16:19:01.513Z,36.90
2018-11-28T16:24:05.402Z,36.23
2018-11-28T16:29:08.990Z,40.20
2018-11-28T16:34:12.622Z,35.37
2018-11-28T16:39:16.418Z,35.80
2018-11-28T16:44:19.896Z,39.67
2018-11-28T16:49:24.197Z,32.93
2018-11-28T16:54:27.865Z,38.33
2018-11-28T16:59:32.471Z,35.40
2018-11-28T17:04:35.964Z,37.27
2018-11-28T17:09:40.673Z,37.17
2018-11-28T17:14:46.225Z,41.10
2018-11-28T17:19:49.785Z,32.13
2018-11-28T17:24:57.148Z,32.00
2018-11-28T17:30:01.717Z,37.93
2018-11-28T17:35:05.605Z,34.50
2018-11-28T17:40:12.278Z,34.17
2018-11-28T17:45:26.611Z,35.27
2018-11-28T17:50:30.157Z,37.70
2018-11-28T17:55:50.202Z,38.00
2018-11-28T18:00:53.781Z,38.07
2018-11-28T18:05:58.504Z,40.80
2018-11-28T18:11:10.839Z,34.37
2018-11-28T18:16:17.491Z,39.33
2018-11-28T18:26:46.563Z,42.73
2018-11-28T18:31:51.249Z,40.13
2018-11-28T18:36:55.020Z,42.30
2018-11-28T18:42:09.027Z,42.93
2018-11-28T18:47:18.730Z,37.13
2018-11-28T18:52:24.393Z,35.77
2018-11-28T18:57:27.882Z,40.07
2018-11-28T19:02:32.503Z,41.33
2018-11-28T19:07:36.040Z,59.57
2018-11-28T19:12:39.956Z,59.33
2018-11-28T19:17:44.726Z,63.37
2018-11-28T19:22:48.928Z,44.03
2018-11-28T19:27:52.541Z,40.93
2018-11-28T19:33:00.858Z,33.77
2018-11-28T19:38:04.706Z,48.63
2018-11-28T19:43:08.546Z,40.13
2018-11-28T19:48:12.178Z,40.77
2018-11-28T19:53:15.754Z,40.27
2018-11-28T19:58:19.392Z,41.53
2018-11-28T20:03:23.088Z,39.97
2018-11-28T20:08:26.618Z,42.37
2018-11-28T20:13:30.714Z,42.07
2018-11-28T20:18:34.246Z,41.90
2018-11-28T20:23:37.832Z,48.47
2018-11-28T20:28:41.455Z,44.50
2018-11-28T20:33:45.004Z,44.93
2018-11-28T20:38:48.609Z,38.40
2018-11-28T20:43:53.345Z,42.57
2018-11-28T20:48:57.146Z,39.77
2018-11-28T20:54:00.808Z,39.50
2018-11-28T20:59:06.326Z,38.13
2018-11-28T21:04:10.982Z,41.80
2018-11-28T21:09:14.568Z,38.47
2018-11-28T21:14:18.220Z,34.17
2018-11-28T21:19:21.946Z,35.90
2018-11-28T21:24:26.741Z,35.70
2018-11-28T21:29:30.630Z,38.33
2018-11-28T21:34:34.282Z,29.53
2018-11-28T21:39:38.028Z,31.67
2018-11-28T21:44:41.905Z,30.67
2018-11-28T21:49:45.587Z,31.00
2018-11-28T21:54:49.197Z,26.30
2018-11-28T21:59:52.751Z,28.90
2018-11-28T22:04:56.580Z,29.67
2018-11-28T22:10:00.258Z,28.47
2018-11-28T22:15:04.275Z,27.77
2018-11-28T22:20:10.145Z,31.30
2018-11-28T22:25:17.927Z,30.03
2018-11-28T22:30:23.517Z,27.47
2018-11-28T22:35:27.172Z,30.77
2018-11-28T22:40:31.784Z,32.60
2018-11-28T22:45:36.630Z,25.67
2018-11-28T22:50:40.692Z,29.07
2018-11-28T22:55:44.281Z,29.37
2018-11-28T23:00:54.136Z,27.33
2018-11-28T23:05:57.692Z,27.73
2018-11-28T23:11:01.370Z,28.73
2018-11-28T23:16:05.133Z,33.40
2018-11-28T23:21:08.809Z,30.53
2018-11-28T23:26:12.509Z,30.77
2018-11-28T23:31:16.082Z,31.77
2018-11-28T23:36:20.681Z,28.63
2018-11-28T23:41:24.155Z,30.40
2018-11-28T23:46:27.772Z,31.47
2018-11-28T23:51:31.372Z,33.57
2018-11-28T23:56:34.890Z,31.03
